LYBE/BEG METAR and TAF weather

Enter ICAO airport designator
Station Type Date Time Source
LYBE METAR 2020/04/07 06:00 UTC NOAA

LYBE 070600Z 10005KT CAVOK 09/M08 Q1034 NOSIG


Station Type Date Time Source
LYBE Decoded METAR 2020/04/07 06:00 UTC NOAA

Beograd / Surcin, Serbia and Montenegro (LYBE) 44-49N 020-17E 99M
Apr 07, 2020 - 02:00 AM EDT / 2020.04.07 0600 UTC
Wind: from the E (100 degrees) at 6 MPH (5 KT):0
Visibility: greater than 7 mile(s):0
Temperature: 48 F (9 C)
Dew Point: 17 F (-8 C)
Relative Humidity: 29%
Pressure (altimeter): 30.53 in. Hg (1034 hPa)
ob: LYBE 070600Z 10005KT CAVOK 09/M08 Q1034 NOSIG
cycle: 6

Station Type Date Time Source
LYBE TAF 2020/04/07 06:21 UTC NOAA

TAF LYBE 070500Z 0706/0806 09006KT CAVOK TX18/0712Z TN05/0804Z
TEMPO 0707/0715 11016KT

Example: see airport list